Latest Weather Observations for Batchelor

IDD60801

Issued at 7:11 pm CST Sunday 19 August 2018 (issued every 10 minutes, with the page automatically refreshed every 10 minutes)

About weather observations | Map of weather stations | Latest weather observations for NT | Other Formats
Station Details ID: 014272 Name: BATCHELOR AIRPORT Lat: -13.05 Lon: 131.03 Height: 104.0 m
Data from the previous 72 hours. | See also: Recent months at Batchelor
Date/Time
CST
Temp
°C
App
Temp
°C
Dew
Point
°C
Rel
Hum
%
Delta-T
°C
Wind Press
QNH
hPa
Press
MSL
hPa
Rain since
9am
mm
Dir  Spd
km/h
Gust
km/h
Spd
kts
Gust
kts
19/07:00pm 29.6 27.5 5.6 22 12.6 SE 6 9 3 5 1012.8 1012.2 0.0
19/06:30pm 31.1 28.0 5.5 20 13.6 ESE 11 15 6 8 1012.3 1011.8 0.0
19/06:00pm 32.6 28.5 6.0 19 14.3 ESE 17 24 9 13 1011.9 1011.4 0.0
19/05:30pm 33.4 30.0 5.9 18 14.9 E 13 20 7 11 1011.8 1011.3 0.0
19/05:00pm 33.7 29.8 5.3 17 15.2 SE 15 24 8 13 1011.5 1011.0 0.0
19/04:30pm 33.6 29.6 6.8 19 14.7 SE 17 28 9 15 1011.3 1010.8 0.0
19/04:00pm 33.8 29.9 7.0 19 14.8 ESE 17 22 9 12 1011.4 1010.9 0.0
19/03:30pm 34.1 29.7 6.4 18 15.2 ESE 19 26 10 14 1011.6 1011.1 0.0
19/03:00pm 33.8 29.7 7.7 20 14.6 ENE 19 30 10 16 1012.0 1011.5 0.0
19/02:30pm 33.1 29.0 7.9 21 14.0 ESE 19 33 10 18 1012.3 1011.8 0.0
19/02:00pm 33.2 28.9 7.9 21 14.1 E 20 35 11 19 1012.6 1012.1 0.0
19/01:30pm 33.0 28.1 8.5 22 13.8 E 24 35 13 19 1013.1 1012.5 0.0
19/01:00pm 32.4 27.9 9.9 25 12.9 ESE 24 35 13 19 1013.6 1013.0 0.0
19/12:30pm 31.7 27.9 11.0 28 12.0 E 22 33 12 18 1014.0 1013.4 0.0
19/12:20pm 31.5 28.0 10.8 28 12.0 ESE 20 44 11 24 1014.1 1013.5 0.0
19/12:00pm 30.6 28.4 12.0 32 10.9 ESE 15 24 8 13 1014.7 1014.1 0.0
19/11:30am 30.4 28.0 12.8 34 10.5 E 17 26 9 14 1015.2 1014.6 0.0
19/11:00am 29.0 26.7 14.0 39 9.0 ESE 19 26 10 14 1015.7 1015.1 0.0
19/10:30am 28.8 27.4 14.6 42 8.6 ESE 15 24 8 13 1016.2 1015.7 0.0
19/10:00am 27.2 27.7 16.5 52 6.7 ESE 9 13 5 7 1016.5 1016.0 0.0
19/09:30am 26.3 27.6 17.6 58 5.5 ENE 7 11 4 6 1016.4 1015.9 0.0
19/09:00am 25.4 27.0 18.3 65 4.5 ENE 7 13 4 7 1016.3 1015.8 0.0
19/08:30am 23.8 25.6 18.4 72 3.4 NE 6 9 3 5 1016.0 1015.5 0.0
19/08:00am 22.6 24.8 18.4 77 2.6 ENE 4 4 2 2 1015.7 1015.1 0.0
19/07:30am 19.6 21.7 17.2 86 1.5 ENE 2 2 1 1 1015.4 1014.8 0.0
19/07:00am 18.8 20.0 16.0 84 1.7 ENE 4 4 2 2 1015.1 1014.5 0.0
19/06:30am 19.9 21.0 15.7 77 2.5 ENE 4 6 2 3 1014.8 1014.2 0.0
19/06:00am 21.0 22.3 17.2 79 2.3 ENE 6 7 3 4 1014.6 1014.0 0.0
19/05:30am 18.1 20.4 16.8 92 0.8 CALM 0 2 0 1 1014.3 1013.7 0.0
19/05:00am 18.1 20.3 16.4 90 1.0 CALM 0 0 0 0 1014.3 1013.7 0.0
19/04:30am 18.7 20.9 16.5 87 1.3 CALM 0 2 0 1 1014.1 1013.5 0.0
19/04:00am 18.9 20.7 16.5 86 1.4 NE 2 4 1 2 1014.1 1013.5 0.0
19/03:30am 19.3 20.8 16.7 85 1.6 NE 4 4 2 2 1014.2 1013.6 0.0
19/03:00am 19.8 21.3 17.6 87 1.4 NNE 6 7 3 4 1014.3 1013.7 0.0
19/02:30am 19.6 21.2 16.8 84 1.7 NE 4 6 2 3 1014.4 1013.8 0.0
19/02:00am 20.3 21.6 17.1 82 2.0 NNE 6 9 3 5 1014.4 1013.8 0.0
19/01:30am 18.9 21.3 16.9 88 1.2 CALM 0 0 0 0 1013.9 1013.3 0.0
19/01:00am 19.3 21.9 17.6 90 1.0 CALM 0 0 0 0 1014.1 1013.5 0.0
19/12:30am 19.3 21.4 17.1 87 1.3 SW 2 4 1 2 1014.1 1013.5 0.0
19/12:00am 19.5 21.6 17.3 87 1.3 WNW 2 6 1 3 1014.3 1013.7 0.0
 
Date/Time
CST
Temp
°C
App
Temp
°C
Dew
Point
°C
Rel
Hum
%
Delta-T
°C
Wind Press
QNH
hPa
Press
MSL
hPa
Rain since
9am
mm
Dir  Spd
km/h
Gust
km/h
Spd
kts
Gust
kts
18/11:30pm 20.4 21.7 16.2 77 2.5 WNW 4 4 2 2 1014.3 1013.7 0.0
18/11:00pm 21.6 23.8 17.4 77 2.6 WNW 2 4 1 2 1014.3 1013.7 0.0
18/10:30pm 22.7 24.8 17.2 71 3.4 WNW 2 6 1 3 1014.1 1013.5 0.0
18/10:00pm 23.7 25.2 18.1 71 3.5 WNW 7 15 4 8 1013.9 1013.3 0.0
18/09:30pm 23.8 25.1 17.5 68 3.9 NW 7 9 4 5 1013.7 1013.1 0.0
18/09:00pm 24.1 25.9 17.4 66 4.2 WNW 4 6 2 3 1013.5 1012.9 0.0
18/08:30pm 24.9 26.4 17.6 64 4.6 WNW 6 9 3 5 1013.2 1012.6 0.0
18/08:00pm 24.6 23.7 10.8 42 7.7 W 6 15 3 8 1012.5 1012.0 0.0
18/07:30pm 25.2 25.1 9.5 37 8.6 CALM 0 0 0 0 1012.0 1011.5 0.0
18/07:00pm 26.8 26.5 8.7 32 9.9 CALM 0 0 0 0 1011.6 1011.1 0.0
18/06:30pm 29.6 27.9 7.5 25 12.0 SE 6 7 3 4 1011.4 1010.9 0.0
18/06:00pm 31.5 29.1 7.2 22 13.3 SSE 9 15 5 8 1011.1 1010.6 0.0
18/05:30pm 32.5 29.9 5.9 19 14.3 ESE 9 13 5 7 1011.0 1010.5 0.0
18/05:00pm 33.1 31.1 6.4 19 14.5 SE 6 13 3 7 1010.7 1010.2 0.0
18/04:30pm 33.0 30.1 6.3 19 14.5 SE 11 20 6 11 1010.8 1010.3 0.0
18/04:00pm 33.0 31.2 7.8 21 14.0 ESE 7 15 4 8 1010.7 1010.2 0.0
18/03:30pm 32.4 30.6 8.0 22 13.6 SE 7 17 4 9 1010.8 1010.3 0.0
18/03:00pm 32.7 30.6 8.2 22 13.7 ESE 9 28 5 15 1011.1 1010.6 0.0
18/02:30pm 32.7 30.5 9.5 24 13.2 E 11 19 6 10 1011.4 1010.9 0.0
18/02:00pm 31.4 29.4 10.2 27 12.2 E 11 24 6 13 1011.9 1011.4 0.0
18/01:30pm 31.1 29.6 12.0 31 11.3 E 11 26 6 14 1012.4 1011.9 0.0
18/01:00pm 31.0 30.5 12.8 32 10.8 ESE 7 13 4 7 1013.1 1012.5 0.0
18/12:30pm 30.3 30.2 14.0 37 9.9 SE 7 15 4 8 1013.7 1013.1 0.0
18/12:00pm 29.7 30.1 14.7 40 9.2 E 6 11 3 6 1014.5 1013.9 0.0
18/11:30am 29.0 29.9 16.2 46 8.0 NW 6 9 3 5 1014.9 1014.3 0.0
18/11:00am 28.4 29.4 16.3 47 7.5 N 6 9 3 5 1015.5 1014.9 0.0
18/10:30am 27.2 28.2 16.8 53 6.5 NE 7 15 4 8 1015.9 1015.3 0.0
18/10:00am 26.8 26.9 16.4 53 6.4 NNE 11 17 6 9 1016.1 1015.6 0.0
18/09:30am 26.5 27.1 17.8 58 5.5 NNE 11 17 6 9 1015.9 1015.3 0.0
18/09:00am 25.0 26.3 18.4 66 4.2 ENE 9 13 5 7 1015.7 1015.1 0.0
18/08:30am 23.2 25.0 18.3 74 3.1 ENE 6 11 3 6 1015.4 1014.8 0.0
18/08:00am 21.7 23.9 18.3 81 2.1 E 4 4 2 2 1015.3 1014.7 0.0
18/07:30am 19.7 21.6 17.7 88 1.2 E 4 4 2 2 1015.0 1014.4 0.0
18/07:00am 19.0 20.7 17.1 89 1.2 E 4 6 2 3 1014.7 1014.1 0.0
18/06:30am 18.9 20.2 17.0 89 1.2 ENE 6 6 3 3 1014.5 1013.9 0.0
18/06:00am 19.8 21.2 17.8 88 1.2 ENE 7 9 4 5 1014.1 1013.5 0.0
18/05:30am 19.0 21.0 17.8 93 0.7 SSW 4 13 2 7 1013.6 1013.0 0.0
18/05:00am 19.3 21.4 18.1 93 0.7 SW 4 6 2 3 1013.3 1012.7 0.0
18/04:30am 19.3 21.5 18.3 94 0.6 SW 4 6 2 3 1013.1 1012.5 0.0
18/04:00am 19.7 22.0 18.5 93 0.7 SW 4 6 2 3 1013.0 1012.4 0.0
18/03:30am 19.7 22.7 18.5 93 0.7 CALM 0 0 0 0 1012.8 1012.2 0.0
18/03:00am 19.6 21.7 18.1 91 0.9 SW 4 4 2 2 1012.9 1012.3 0.0
18/02:30am 20.2 22.3 18.1 88 1.3 SSW 4 6 2 3 1013.1 1012.5 0.0
18/02:00am 20.5 22.5 17.9 85 1.6 SSW 4 6 2 3 1013.1 1012.5 0.0
18/01:30am 20.9 22.8 17.7 82 2.0 SW 4 6 2 3 1013.2 1012.6 0.0
18/01:00am 21.1 22.8 17.1 78 2.5 SW 4 6 2 3 1013.5 1012.9 0.0
18/12:30am 21.8 23.6 17.4 76 2.7 WSW 4 4 2 2 1013.5 1012.9 0.0
18/12:00am 22.3 23.8 17.7 75 2.9 WSW 6 7 3 4 1013.6 1013.0 0.0
 
Date/Time
CST
Temp
°C
App
Temp
°C
Dew
Point
°C
Rel
Hum
%
Delta-T
°C
Wind Press
QNH
hPa
Press
MSL
hPa
Rain since
9am
mm
Dir  Spd
km/h
Gust
km/h
Spd
kts
Gust
kts
17/11:30pm 22.6 24.1 17.7 74 3.1 SW 6 7 3 4 1013.7 1013.1 0.0
17/11:00pm 22.8 24.7 17.7 73 3.2 WSW 4 6 2 3 1013.7 1013.1 0.0
17/10:30pm 23.1 25.0 17.6 71 3.4 W 4 6 2 3 1013.6 1013.0 0.0
17/10:00pm 23.8 25.5 18.0 70 3.6 WNW 6 9 3 5 1013.5 1012.9 0.0
17/09:30pm 24.3 25.9 18.2 68 3.9 WNW 7 11 4 6 1013.5 1012.9 0.0
17/09:00pm 24.6 26.3 18.1 67 4.1 NW 6 9 3 5 1013.2 1012.6 0.0
17/08:30pm 25.5 26.6 17.9 63 4.8 NW 9 13 5 7 1012.8 1012.2 0.0
17/08:00pm 26.3 27.5 18.2 61 5.2 WNW 9 19 5 10 1012.1 1011.6 0.0
17/07:30pm 27.2 28.3 17.9 56 5.9 WNW 9 15 5 8 1011.4 1010.9 0.0
17/07:00pm 27.9 28.5 11.9 37 9.3 CALM 0 0 0 0 1010.6 1010.1 0.0
17/06:30pm 30.4 30.6 11.9 32 10.9 SW 2 4 1 2 1010.2 1009.7 0.0
17/06:00pm 31.7 31.3 9.8 26 12.5 SW 2 6 1 3 1009.8 1009.3 0.0
17/05:30pm 31.3 31.0 10.1 27 12.1 S 2 4 1 2 1009.4 1008.9 0.0
17/05:00pm 31.8 30.5 9.3 25 12.7 SW 6 9 3 5 1009.1 1008.6 0.0
17/04:30pm 32.3 31.2 9.8 25 12.9 S 6 9 3 5 1009.0 1008.5 0.0
17/04:00pm 32.2 31.6 10.3 26 12.6 SSE 4 7 2 4 1009.0 1008.5 0.0
17/03:30pm 32.3 31.2 9.8 25 12.9 NNW 6 11 3 6 1009.1 1008.6 0.0
17/03:00pm 32.3 31.8 10.9 27 12.5 ENE 4 6 2 3 1009.4 1008.9 0.0
17/02:30pm 32.2 30.8 10.8 27 12.4 S 9 15 5 8 1009.7 1009.2 0.0
17/02:00pm 31.6 30.9 11.4 29 11.8 WSW 6 17 3 9 1010.1 1009.6 0.0
17/01:30pm 30.1 28.5 11.6 32 10.8 ESE 11 17 6 9 1010.6 1010.1 0.0
17/01:00pm 30.7 30.2 12.6 33 10.7 SE 7 17 4 9 1011.1 1010.6 0.0
17/12:30pm 29.9 28.8 13.2 36 10.0 ESE 11 19 6 10 1011.7 1011.2 0.0
17/12:00pm 29.2 28.3 13.8 39 9.3 ESE 11 19 6 10 1012.3 1011.8 0.0
17/11:30am 28.9 29.8 16.1 46 8.0 N 6 9 3 5 1013.0 1012.4 0.0
17/11:00am 27.9 28.6 16.2 49 7.3 NE 7 15 4 8 1013.5 1012.9 0.0
17/10:30am 27.1 27.4 16.1 51 6.8 NNE 9 17 5 9 1013.9 1013.3 0.0
17/10:00am 26.2 25.8 16.2 54 6.2 ENE 13 17 7 9 1014.1 1013.5 0.0
17/09:30am 25.9 26.0 17.5 59 5.3 ENE 13 19 7 10 1014.0 1013.4 0.0
17/09:00am 24.8 25.9 18.0 66 4.3 ENE 9 13 5 7 1014.0 1013.4 0.0
17/08:30am 23.1 24.1 17.8 72 3.3 ENE 9 15 5 8 1013.7 1013.1 0.0
17/08:00am 22.0 23.5 17.6 76 2.7 ENE 6 7 3 4 1013.5 1012.9 0.0
17/07:30am 20.5 22.0 17.5 83 1.8 E 6 9 3 5 1013.2 1012.6 0.0
17/07:00am 19.8 20.9 17.2 85 1.6 E 7 9 4 5 1012.9 1012.3 0.0
17/06:30am 20.1 21.6 18.1 88 1.2 E 7 9 4 5 1012.8 1012.2 0.0
17/06:00am 18.6 20.1 17.6 94 0.6 WSW 6 9 3 5 1012.3 1011.8 0.0
17/05:30am 17.9 19.3 16.4 91 0.9 WSW 4 6 2 3 1012.1 1011.6 0.0
17/05:00am 18.0 20.3 16.7 92 0.8 CALM 0 0 0 0 1011.9 1011.4 0.0
17/04:30am 18.3 20.6 16.8 91 0.9 CALM 0 0 0 0 1011.9 1011.4 0.0
17/04:00am 18.7 20.7 16.9 89 1.1 WSW 2 6 1 3 1011.9 1011.4 0.0
17/03:30am 18.9 20.5 16.9 88 1.2 WSW 4 6 2 3 1012.2 1011.7 0.0
17/03:00am 19.4 21.8 17.0 86 1.5 CALM 0 0 0 0 1012.4 1011.9 0.0
17/02:30am 19.8 21.8 17.8 88 1.2 WSW 4 4 2 2 1012.6 1012.1 0.0
17/02:00am 19.7 22.2 17.3 86 1.5 CALM 0 4 0 2 1012.8 1012.2 0.0
17/01:30am 20.3 23.1 17.9 86 1.5 CALM 0 0 0 0 1012.8 1012.2 0.0
17/01:00am 20.4 23.2 18.0 86 1.5 CALM 0 0 0 0 1012.8 1012.2 0.0
17/12:30am 20.6 22.4 16.4 77 2.5 WSW 2 4 1 2 1012.8 1012.2 0.0
17/12:00am 21.9 24.8 18.3 80 2.3 CALM 0 0 0 0 1012.6 1012.1 0.0
 
Date/Time
CST
Temp
°C
App
Temp
°C
Dew
Point
°C
Rel
Hum
%
Delta-T
°C
Wind Press
QNH
hPa
Press
MSL
hPa
Rain since
9am
mm
Dir  Spd
km/h
Gust
km/h
Spd
kts
Gust
kts
16/11:30pm 22.4 24.8 18.0 76 2.8 WSW 2 4 1 2 1012.8 1012.2 0.0
16/11:00pm 23.1 25.3 18.4 75 3.0 WSW 4 7 2 4 1012.8 1012.2 0.0
16/10:30pm 23.2 25.0 18.3 74 3.1 W 6 9 3 5 1012.8 1012.2 0.0
16/10:00pm 23.2 24.6 17.4 70 3.6 WSW 6 9 3 5 1012.9 1012.3 0.0
16/09:30pm 23.9 24.7 16.4 63 4.6 WNW 7 11 4 6 1012.8 1012.2 0.0
16/09:00pm 24.4 25.2 16.4 61 4.9 WNW 7 9 4 5 1012.4 1011.9 0.0
16/08:30pm 25.1 26.1 16.3 58 5.4 WNW 6 11 3 6 1012.5 1012.0 0.0
16/08:00pm 25.7 25.7 16.3 56 5.8 WNW 11 20 6 11 1011.6 1011.1 0.0
16/07:30pm 26.7 26.3 16.3 53 6.4 WNW 13 20 7 11 1011.0 1010.5 0.0

Other Formats:

Comma delimited format used in spreadsheet applications
http://www.bom.gov.au/fwo/IDD60801/IDD60801.94125.axf

JavaScript Object Notation format (JSON) in row-major order
http://www.bom.gov.au/fwo/IDD60801/IDD60801.94125.json